Time;durP1;ratioP1;P1;durP2;ratioP2;P2;SDS_P1;SDS_P2;PMS_P1;PMS_P2;Temp;Humidity;BMP_temperature;BMP_pressure;BME280_temperature;BME280_humidity;BME280_pressure;Samples;Min_cycle;Max_cycle;Signal;HPM_P1;HPM_P2
2020/10/03 00:00:02;;;;;;;5.950001;2.65;;;;;;;15.35;73.31152;92720.17;;;;
2020/10/03 00:01:04;;;;;;;5.950001;2.65;;;;;;;15.35;73.31152;92720.17;;;;
2020/10/03 00:02:07;;;;;;;5.950001;2.65;;;;;;;15.35;73.31152;92720.17;;;;
2020/10/03 00:03:08;;;;;;;3.3;2.7;;;;;;;14.79;75.23926;92711.29;;;;
2020/10/03 00:04:16;;;;;;;3.3;2.7;;;;;;;14.79;75.23926;92711.29;;;;
2020/10/03 00:05:21;;;;;;;3.3;2.7;;;;;;;14.79;75.23926;92711.29;;;;
2020/10/03 00:06:21;;;;;;;3.3;2.7;;;;;;;14.79;75.23926;92711.29;;;;
2020/10/03 00:07:22;;;;;;;3.3;2.7;;;;;;;14.79;75.23926;92711.29;;;;
2020/10/03 00:08:23;;;;;;;3.3;2.7;;;;;;;14.79;75.23926;92711.29;;;;
2020/10/03 00:09:39;;;;;;;3.3;2.7;;;;;;;14.79;75.23926;92711.29;;;;
2020/10/03 00:10:40;;;;;;;3.3;2.7;;;;;;;14.79;75.23926;92711.29;;;;
2020/10/03 00:11:40;;;;;;;3.3;2.7;;;;;;;14.79;75.23926;92711.29;;;;
2020/10/03 00:12:41;;;;;;;3.3;2.7;;;;;;;14.79;75.23926;92711.29;;;;
2020/10/03 00:13:43;;;;;;;3.8;2.65;;;;;;;14.45;77.30664;92697.39;;;;
2020/10/03 00:14:44;;;;;;;3.8;2.65;;;;;;;14.45;77.30664;92697.39;;;;
2020/10/03 00:15:44;;;;;;;3.8;2.65;;;;;;;14.45;77.30664;92697.39;;;;
2020/10/03 00:16:45;;;;;;;3.8;2.65;;;;;;;14.45;77.30664;92697.39;;;;
2020/10/03 00:17:46;;;;;;;3.8;2.65;;;;;;;14.45;77.30664;92697.39;;;;
2020/10/03 00:18:51;;;;;;;3.8;2.65;;;;;;;14.45;77.30664;92697.39;;;;
2020/10/03 00:20:02;;;;;;;3.8;2.65;;;;;;;14.45;77.30664;92697.39;;;;
2020/10/03 00:21:05;;;;;;;3.8;2.65;;;;;;;14.45;77.30664;92697.39;;;;
2020/10/03 00:22:08;;;;;;;3.8;2.65;;;;;;;14.45;77.30664;92697.39;;;;
2020/10/03 00:23:09;;;;;;;3.8;2.65;;;;;;;14.45;77.30664;92697.39;;;;
2020/10/03 00:24:14;;;;;;;3.8;2.65;;;;;;;14.45;77.30664;92697.39;;;;
2020/10/03 00:25:18;;;;;;;4.25;2.6;;;;;;;14.12;78.6416;92694.76;;;;
2020/10/03 00:26:19;;;;;;;4.25;2.6;;;;;;;14.12;78.6416;92694.76;;;;
2020/10/03 00:27:19;;;;;;;4.25;2.6;;;;;;;14.12;78.6416;92694.76;;;;
2020/10/03 00:28:20;;;;;;;4.25;2.6;;;;;;;14.12;78.6416;92694.76;;;;
2020/10/03 00:29:23;;;;;;;4.25;2.6;;;;;;;14.12;78.6416;92694.76;;;;
2020/10/03 00:30:27;;;;;;;4.25;2.6;;;;;;;14.12;78.6416;92694.76;;;;
2020/10/03 00:31:32;;;;;;;4.25;2.6;;;;;;;14.12;78.6416;92694.76;;;;
2020/10/03 00:32:37;;;;;;;4.25;2.6;;;;;;;14.12;78.6416;92694.76;;;;
2020/10/03 00:33:40;;;;;;;4.25;2.6;;;;;;;14.12;78.6416;92694.76;;;;
2020/10/03 00:34:53;;;;;;;4.25;2.6;;;;;;;14.12;78.6416;92694.76;;;;
2020/10/03 00:36:06;;;;;;;3.2;2.55;;;;;;;13.92;79.9502;92666.15;;;;
2020/10/03 00:37:07;;;;;;;3.2;2.55;;;;;;;13.92;79.9502;92666.15;;;;
2020/10/03 00:38:09;;;;;;;3.2;2.55;;;;;;;13.92;79.9502;92666.15;;;;
2020/10/03 00:39:18;;;;;;;3.2;2.55;;;;;;;13.92;79.9502;92666.15;;;;
2020/10/03 00:40:29;;;;;;;3.2;2.55;;;;;;;13.92;79.9502;92666.15;;;;
2020/10/03 00:41:33;;;;;;;3.2;2.55;;;;;;;13.92;79.9502;92666.15;;;;
2020/10/03 00:42:37;;;;;;;3.2;2.55;;;;;;;13.92;79.9502;92666.15;;;;
2020/10/03 00:43:57;;;;;;;3.2;2.55;;;;;;;13.92;79.9502;92666.15;;;;
2020/10/03 00:45:02;;;;;;;3.2;2.55;;;;;;;13.92;79.9502;92666.15;;;;
2020/10/03 00:46:03;;;;;;;4.350001;2.7;;;;;;;13.73;80.76563;92657.51;;;;
2020/10/03 00:47:07;;;;;;;4.350001;2.7;;;;;;;13.73;80.76563;92657.51;;;;
2020/10/03 00:48:08;;;;;;;4.350001;2.7;;;;;;;13.73;80.76563;92657.51;;;;
2020/10/03 00:49:14;;;;;;;4.350001;2.7;;;;;;;13.73;80.76563;92657.51;;;;
2020/10/03 00:50:16;;;;;;;4.350001;2.7;;;;;;;13.73;80.76563;92657.51;;;;
2020/10/03 00:51:20;;;;;;;4.350001;2.7;;;;;;;13.73;80.76563;92657.51;;;;
2020/10/03 00:52:23;;;;;;;4.350001;2.7;;;;;;;13.73;80.76563;92657.51;;;;
2020/10/03 00:53:24;;;;;;;4.350001;2.7;;;;;;;13.73;80.76563;92657.51;;;;
2020/10/03 00:54:25;;;;;;;4.350001;2.7;;;;;;;13.73;80.76563;92657.51;;;;
2020/10/03 00:55:26;;;;;;;4.350001;2.7;;;;;;;13.73;80.76563;92657.51;;;;
2020/10/03 00:56:27;;;;;;;3.1;2.8;;;;;;;13.73;81.7666;92643.41;;;;
2020/10/03 00:57:28;;;;;;;3.1;2.8;;;;;;;13.73;81.7666;92643.41;;;;
2020/10/03 00:58:33;;;;;;;3.1;2.8;;;;;;;13.73;81.7666;92643.41;;;;
2020/10/03 00:59:36;;;;;;;3.1;2.8;;;;;;;13.73;81.7666;92643.41;;;;
2020/10/03 01:00:41;;;;;;;3.1;2.8;;;;;;;13.73;81.7666;92643.41;;;;
2020/10/03 01:01:42;;;;;;;3.1;2.8;;;;;;;13.73;81.7666;92643.41;;;;
2020/10/03 01:02:45;;;;;;;3.1;2.8;;;;;;;13.73;81.7666;92643.41;;;;
2020/10/03 01:03:56;;;;;;;3.1;2.8;;;;;;;13.73;81.7666;92643.41;;;;
2020/10/03 01:05:05;;;;;;;3.1;2.8;;;;;;;13.73;81.7666;92643.41;;;;
2020/10/03 01:06:06;;;;;;;3.1;2.8;;;;;;;13.73;81.7666;92643.41;;;;
2020/10/03 01:07:07;;;;;;;4.25;3.400001;;;;;;;13.91;81.625;92637.01;;;;
2020/10/03 01:08:07;;;;;;;4.25;3.400001;;;;;;;13.91;81.625;92637.01;;;;
2020/10/03 01:09:08;;;;;;;4.25;3.400001;;;;;;;13.91;81.625;92637.01;;;;
2020/10/03 01:10:10;;;;;;;4.25;3.400001;;;;;;;13.91;81.625;92637.01;;;;
2020/10/03 01:11:10;;;;;;;4.25;3.400001;;;;;;;13.91;81.625;92637.01;;;;
2020/10/03 01:12:14;;;;;;;4.25;3.400001;;;;;;;13.91;81.625;92637.01;;;;
2020/10/03 01:13:18;;;;;;;4.25;3.400001;;;;;;;13.91;81.625;92637.01;;;;
2020/10/03 01:14:19;;;;;;;4.25;3.400001;;;;;;;13.91;81.625;92637.01;;;;
2020/10/03 01:15:23;;;;;;;4.25;3.400001;;;;;;;13.91;81.625;92637.01;;;;
2020/10/03 01:16:26;;;;;;;4.25;3.400001;;;;;;;13.91;81.625;92637.01;;;;
2020/10/03 01:17:29;;;;;;;4.25;3.400001;;;;;;;13.91;81.625;92637.01;;;;
2020/10/03 01:18:30;;;;;;;4.049999;3.45;;;;;;;14.48;80.82715;92618.98;;;;
2020/10/03 01:19:34;;;;;;;4.049999;3.45;;;;;;;14.48;80.82715;92618.98;;;;
2020/10/03 01:20:37;;;;;;;4.049999;3.45;;;;;;;14.48;80.82715;92618.98;;;;
2020/10/03 01:21:38;;;;;;;4.049999;3.45;;;;;;;14.48;80.82715;92618.98;;;;
2020/10/03 01:22:52;;;;;;;4.049999;3.45;;;;;;;14.48;80.82715;92618.98;;;;
2020/10/03 01:23:57;;;;;;;4.049999;3.45;;;;;;;14.48;80.82715;92618.98;;;;
2020/10/03 01:25:29;;;;;;;4.049999;3.45;;;;;;;14.48;80.82715;92618.98;;;;
2020/10/03 01:26:36;;;;;;;4.049999;3.45;;;;;;;14.48;80.82715;92618.98;;;;
2020/10/03 01:27:48;;;;;;;4.049999;3.45;;;;;;;14.48;80.82715;92618.98;;;;
2020/10/03 01:29:20;;;;;;;3.25;2.95;;;;;;;15.55;77.35938;92606.04;;;;
2020/10/03 01:34:33;;;;;;;3.25;2.95;;;;;;;15.55;77.35938;92606.04;;;;
2020/10/03 01:35:34;;;;;;;3.25;2.95;;;;;;;15.55;77.35938;92606.04;;;;
2020/10/03 01:36:37;;;;;;;3.25;2.95;;;;;;;15.55;77.35938;92606.04;;;;
2020/10/03 01:37:41;;;;;;;3.25;2.95;;;;;;;15.55;77.35938;92606.04;;;;
2020/10/03 01:38:48;;;;;;;3.25;2.95;;;;;;;15.55;77.35938;92606.04;;;;
2020/10/03 01:39:51;;;;;;;3.5;2.65;;;;;;;16.78;72.72363;92594.29;;;;
2020/10/03 01:40:58;;;;;;;3.5;2.65;;;;;;;16.78;72.72363;92594.29;;;;
2020/10/03 01:42:02;;;;;;;3.5;2.65;;;;;;;16.78;72.72363;92594.29;;;;
2020/10/03 01:43:05;;;;;;;3.5;2.65;;;;;;;16.78;72.72363;92594.29;;;;
2020/10/03 01:44:07;;;;;;;3.5;2.65;;;;;;;16.78;72.72363;92594.29;;;;
2020/10/03 01:45:31;;;;;;;3.5;2.65;;;;;;;16.78;72.72363;92594.29;;;;
2020/10/03 01:46:37;;;;;;;3.5;2.65;;;;;;;16.78;72.72363;92594.29;;;;
2020/10/03 01:47:40;;;;;;;3.5;2.65;;;;;;;16.78;72.72363;92594.29;;;;
2020/10/03 01:48:44;;;;;;;3.5;2.65;;;;;;;16.78;72.72363;92594.29;;;;
2020/10/03 01:49:50;;;;;;;3.45;2.75;;;;;;;17.61;69.30078;92601.25;;;;
2020/10/03 01:50:53;;;;;;;3.45;2.75;;;;;;;17.61;69.30078;92601.25;;;;
2020/10/03 01:52:01;;;;;;;3.45;2.75;;;;;;;17.61;69.30078;92601.25;;;;
2020/10/03 01:53:05;;;;;;;3.45;2.75;;;;;;;17.61;69.30078;92601.25;;;;
2020/10/03 01:54:06;;;;;;;3.45;2.75;;;;;;;17.61;69.30078;92601.25;;;;
2020/10/03 01:55:09;;;;;;;3.45;2.75;;;;;;;17.61;69.30078;92601.25;;;;
2020/10/03 01:56:11;;;;;;;3.45;2.75;;;;;;;17.61;69.30078;92601.25;;;;
2020/10/03 01:57:13;;;;;;;3.45;2.75;;;;;;;17.61;69.30078;92601.25;;;;
2020/10/03 01:58:21;;;;;;;3.45;2.75;;;;;;;17.61;69.30078;92601.25;;;;
2020/10/03 01:59:26;;;;;;;3.45;2.75;;;;;;;17.61;69.30078;92601.25;;;;
2020/10/03 02:00:28;;;;;;;3.05;2.8;;;;;;;18.14;66.06641;92622.89;;;;
2020/10/03 02:01:31;;;;;;;3.05;2.8;;;;;;;18.14;66.06641;92622.89;;;;
2020/10/03 02:02:32;;;;;;;3.05;2.8;;;;;;;18.14;66.06641;92622.89;;;;
2020/10/03 02:03:38;;;;;;;3.05;2.8;;;;;;;18.14;66.06641;92622.89;;;;
2020/10/03 02:04:43;;;;;;;3.05;2.8;;;;;;;18.14;66.06641;92622.89;;;;
2020/10/03 02:05:51;;;;;;;3.05;2.8;;;;;;;18.14;66.06641;92622.89;;;;
2020/10/03 02:06:52;;;;;;;3.05;2.8;;;;;;;18.14;66.06641;92622.89;;;;
2020/10/03 02:07:55;;;;;;;3.05;2.8;;;;;;;18.14;66.06641;92622.89;;;;
2020/10/03 02:09:05;;;;;;;3.05;2.8;;;;;;;18.14;66.06641;92622.89;;;;
2020/10/03 02:10:06;;;;;;;3.05;2.8;;;;;;;18.14;66.06641;92622.89;;;;
2020/10/03 02:11:07;;;;;;;3;2.7;;;;;;;18.52;63.25;92617.75;;;;
2020/10/03 02:12:09;;;;;;;3;2.7;;;;;;;18.52;63.25;92617.75;;;;
2020/10/03 02:13:09;;;;;;;3;2.7;;;;;;;18.52;63.25;92617.75;;;;
2020/10/03 02:14:12;;;;;;;3;2.7;;;;;;;18.52;63.25;92617.75;;;;
2020/10/03 02:15:17;;;;;;;3;2.7;;;;;;;18.52;63.25;92617.75;;;;
2020/10/03 02:16:19;;;;;;;3;2.7;;;;;;;18.52;63.25;92617.75;;;;
2020/10/03 02:17:24;;;;;;;3;2.7;;;;;;;18.52;63.25;92617.75;;;;
2020/10/03 02:18:26;;;;;;;3;2.7;;;;;;;18.52;63.25;92617.75;;;;
2020/10/03 02:19:32;;;;;;;3;2.7;;;;;;;18.52;63.25;92617.75;;;;
2020/10/03 02:20:45;;;;;;;3;2.7;;;;;;;18.52;63.25;92617.75;;;;
2020/10/03 02:21:56;;;;;;;2.9;2.6;;;;;;;18.76;62.40918;92623.86;;;;
2020/10/03 02:23:05;;;;;;;2.9;2.6;;;;;;;18.76;62.40918;92623.86;;;;
2020/10/03 02:24:12;;;;;;;2.9;2.6;;;;;;;18.76;62.40918;92623.86;;;;
2020/10/03 02:25:23;;;;;;;2.9;2.6;;;;;;;18.76;62.40918;92623.86;;;;
2020/10/03 02:26:28;;;;;;;2.9;2.6;;;;;;;18.76;62.40918;92623.86;;;;
2020/10/03 02:27:31;;;;;;;2.9;2.6;;;;;;;18.76;62.40918;92623.86;;;;
2020/10/03 02:28:38;;;;;;;2.9;2.6;;;;;;;18.76;62.40918;92623.86;;;;
2020/10/03 02:29:43;;;;;;;2.9;2.6;;;;;;;18.76;62.40918;92623.86;;;;
2020/10/03 02:30:58;;;;;;;2.9;2.6;;;;;;;18.76;62.40918;92623.86;;;;
2020/10/03 02:32:01;;;;;;;2.9;2.6;;;;;;;18.76;62.40918;92623.86;;;;
2020/10/03 02:33:04;;;;;;;3.2;2.65;;;;;;;18.68;62.01465;92631.84;;;;
2020/10/03 02:34:07;;;;;;;3.2;2.65;;;;;;;18.68;62.01465;92631.84;;;;
2020/10/03 02:35:08;;;;;;;3.2;2.65;;;;;;;18.68;62.01465;92631.84;;;;
2020/10/03 02:36:16;;;;;;;3.2;2.65;;;;;;;18.68;62.01465;92631.84;;;;
2020/10/03 02:37:23;;;;;;;3.2;2.65;;;;;;;18.68;62.01465;92631.84;;;;
2020/10/03 02:38:34;;;;;;;3.2;2.65;;;;;;;18.68;62.01465;92631.84;;;;
2020/10/03 02:39:45;;;;;;;3.2;2.65;;;;;;;18.68;62.01465;92631.84;;;;
2020/10/03 02:40:47;;;;;;;3.2;2.65;;;;;;;18.68;62.01465;92631.84;;;;
2020/10/03 02:42:04;;;;;;;3.2;2.65;;;;;;;18.68;62.01465;92631.84;;;;
2020/10/03 02:43:33;;;;;;;2.6;2.4;;;;;;;18.5;61.8916;92612.23;;;;
2020/10/03 02:44:58;;;;;;;2.6;2.4;;;;;;;18.5;61.8916;92612.23;;;;
2020/10/03 02:46:21;;;;;;;2.6;2.4;;;;;;;18.5;61.8916;92612.23;;;;
2020/10/03 02:48:12;;;;;;;2.6;2.4;;;;;;;18.5;61.8916;92612.23;;;;
2020/10/03 02:49:30;;;;;;;2.6;2.4;;;;;;;18.5;61.8916;92612.23;;;;
2020/10/03 02:51:00;;;;;;;2.6;2.4;;;;;;;18.5;61.8916;92612.23;;;;
2020/10/03 02:52:25;;;;;;;2.6;2.4;;;;;;;18.5;61.8916;92612.23;;;;
2020/10/03 02:53:31;;;;;;;2.6;2.4;;;;;;;18.5;61.8916;92612.23;;;;
2020/10/03 02:55:03;;;;;;;3;2.45;;;;;;;18.13;61.89453;92597.91;;;;
2020/10/03 02:56:07;;;;;;;3;2.45;;;;;;;18.13;61.89453;92597.91;;;;
2020/10/03 02:57:13;;;;;;;3;2.45;;;;;;;18.13;61.89453;92597.91;;;;
2020/10/03 02:58:15;;;;;;;3;2.45;;;;;;;18.13;61.89453;92597.91;;;;
2020/10/03 02:59:19;;;;;;;3;2.45;;;;;;;18.13;61.89453;92597.91;;;;
2020/10/03 03:00:29;;;;;;;3;2.45;;;;;;;18.13;61.89453;92597.91;;;;
2020/10/03 03:01:32;;;;;;;3;2.45;;;;;;;18.13;61.89453;92597.91;;;;
2020/10/03 03:02:33;;;;;;;3;2.45;;;;;;;18.13;61.89453;92597.91;;;;
2020/10/03 03:03:34;;;;;;;3;2.45;;;;;;;18.13;61.89453;92597.91;;;;
2020/10/03 03:04:45;;;;;;;3.1;2.4;;;;;;;17.81;62.15625;92597.16;;;;
2020/10/03 03:05:51;;;;;;;3.1;2.4;;;;;;;17.81;62.15625;92597.16;;;;
2020/10/03 03:06:57;;;;;;;3.1;2.4;;;;;;;17.81;62.15625;92597.16;;;;
2020/10/03 03:08:03;;;;;;;3.1;2.4;;;;;;;17.81;62.15625;92597.16;;;;
2020/10/03 03:09:15;;;;;;;3.1;2.4;;;;;;;17.81;62.15625;92597.16;;;;
2020/10/03 03:10:23;;;;;;;3.1;2.4;;;;;;;17.81;62.15625;92597.16;;;;
2020/10/03 03:11:27;;;;;;;3.1;2.4;;;;;;;17.81;62.15625;92597.16;;;;
2020/10/03 03:12:34;;;;;;;3.1;2.4;;;;;;;17.81;62.15625;92597.16;;;;
2020/10/03 03:13:38;;;;;;;3.1;2.4;;;;;;;17.81;62.15625;92597.16;;;;
2020/10/03 03:14:44;;;;;;;3.1;2.4;;;;;;;17.81;62.15625;92597.16;;;;
2020/10/03 03:15:53;;;;;;;2.9;2.6;;;;;;;17.56;61.89258;92616.5;;;;
2020/10/03 03:16:56;;;;;;;2.9;2.6;;;;;;;17.56;61.89258;92616.5;;;;
2020/10/03 03:18:03;;;;;;;2.9;2.6;;;;;;;17.56;61.89258;92616.5;;;;
2020/10/03 03:19:13;;;;;;;2.9;2.6;;;;;;;17.56;61.89258;92616.5;;;;
2020/10/03 03:20:19;;;;;;;2.9;2.6;;;;;;;17.56;61.89258;92616.5;;;;
2020/10/03 03:21:21;;;;;;;2.9;2.6;;;;;;;17.56;61.89258;92616.5;;;;
2020/10/03 03:22:40;;;;;;;2.9;2.6;;;;;;;17.56;61.89258;92616.5;;;;
2020/10/03 03:23:48;;;;;;;2.9;2.6;;;;;;;17.56;61.89258;92616.5;;;;
2020/10/03 03:25:01;;;;;;;2.9;2.6;;;;;;;17.56;61.89258;92616.5;;;;
2020/10/03 03:26:03;;;;;;;3.2;2.4;;;;;;;17.42;62.22168;92580.98;;;;
2020/10/03 03:27:10;;;;;;;3.2;2.4;;;;;;;17.42;62.22168;92580.98;;;;
2020/10/03 03:28:28;;;;;;;3.2;2.4;;;;;;;17.42;62.22168;92580.98;;;;
2020/10/03 03:29:30;;;;;;;3.2;2.4;;;;;;;17.42;62.22168;92580.98;;;;
2020/10/03 03:30:47;;;;;;;3.2;2.4;;;;;;;17.42;62.22168;92580.98;;;;
2020/10/03 03:31:51;;;;;;;3.2;2.4;;;;;;;17.42;62.22168;92580.98;;;;
2020/10/03 03:33:08;;;;;;;3.2;2.4;;;;;;;17.42;62.22168;92580.98;;;;
2020/10/03 03:34:37;;;;;;;3.2;2.4;;;;;;;17.42;62.22168;92580.98;;;;
2020/10/03 03:36:04;;;;;;;3.2;2.4;;;;;;;17.42;62.22168;92580.98;;;;
2020/10/03 03:37:26;;;;;;;4.2;2.4;;;;;;;17.28;61.96094;92595.7;;;;
2020/10/03 03:42:53;;;;;;;4.2;2.4;;;;;;;17.28;61.96094;92595.7;;;;
2020/10/03 03:44:24;;;;;;;4.2;2.4;;;;;;;17.28;61.96094;92595.7;;;;
2020/10/03 03:49:54;;;;;;;2.95;2.65;;;;;;;17.29;61.54883;92609.4;;;;
2020/10/03 03:51:04;;;;;;;2.95;2.65;;;;;;;17.29;61.54883;92609.4;;;;
2020/10/03 03:52:25;;;;;;;2.95;2.65;;;;;;;17.29;61.54883;92609.4;;;;
2020/10/03 03:58:01;;;;;;;3;2.7;;;;;;;17.11;61.42578;92560.72;;;;
2020/10/03 03:59:29;;;;;;;3;2.7;;;;;;;17.11;61.42578;92560.72;;;;
2020/10/03 04:01:05;;;;;;;3;2.7;;;;;;;17.11;61.42578;92560.72;;;;
2020/10/03 04:06:45;;;;;;;3;2.7;;;;;;;17.11;61.42578;92560.72;;;;
2020/10/03 04:08:14;;;;;;;3;2.7;;;;;;;17.11;61.42578;92560.72;;;;
2020/10/03 04:09:53;;;;;;;3.5;2.85;;;;;;;16.98;61.43848;92562.45;;;;
2020/10/03 04:11:39;;;;;;;3.5;2.85;;;;;;;16.98;61.43848;92562.45;;;;
2020/10/03 04:17:10;;;;;;;3.5;2.85;;;;;;;16.98;61.43848;92562.45;;;;
2020/10/03 04:19:30;;;;;;;3.1;2.8;;;;;;;16.89;61.20898;92552.23;;;;
2020/10/03 04:20:57;;;;;;;3.1;2.8;;;;;;;16.89;61.20898;92552.23;;;;
2020/10/03 04:26:22;;;;;;;3.1;2.8;;;;;;;16.89;61.20898;92552.23;;;;
2020/10/03 04:28:08;;;;;;;3.1;2.8;;;;;;;16.89;61.20898;92552.23;;;;
2020/10/03 04:33:44;;;;;;;3.65;2.75;;;;;;;16.98;61.0459;92561.1;;;;
2020/10/03 04:35:43;;;;;;;3.65;2.75;;;;;;;16.98;61.0459;92561.1;;;;
2020/10/03 04:37:12;;;;;;;3.65;2.75;;;;;;;16.98;61.0459;92561.1;;;;
2020/10/03 04:42:37;;;;;;;3.5;2.7;;;;;;;16.97;60.62012;92574.07;;;;
2020/10/03 04:44:19;;;;;;;3.5;2.7;;;;;;;16.97;60.62012;92574.07;;;;
2020/10/03 04:50:16;;;;;;;3.5;2.7;;;;;;;16.97;60.62012;92574.07;;;;
2020/10/03 04:51:27;;;;;;;3.55;2.55;;;;;;;16.96;60.59668;92535.69;;;;
2020/10/03 04:53:06;;;;;;;3.55;2.55;;;;;;;16.96;60.59668;92535.69;;;;
2020/10/03 04:54:51;;;;;;;3.55;2.55;;;;;;;16.96;60.59668;92535.69;;;;
2020/10/03 04:56:16;;;;;;;3.55;2.55;;;;;;;16.96;60.59668;92535.69;;;;
2020/10/03 04:57:44;;;;;;;3.55;2.55;;;;;;;16.96;60.59668;92535.69;;;;
2020/10/03 04:59:45;;;;;;;3.55;2.55;;;;;;;16.96;60.59668;92535.69;;;;
2020/10/03 05:01:05;;;;;;;3.55;2.55;;;;;;;16.96;60.59668;92535.69;;;;
2020/10/03 05:02:31;;;;;;;3.2;2.7;;;;;;;16.76;60.7998;92552.39;;;;
2020/10/03 05:08:19;;;;;;;3.2;2.7;;;;;;;16.76;60.7998;92552.39;;;;
2020/10/03 05:14:00;;;;;;;4;2.65;;;;;;;16.7;60.99805;92538.2;;;;
2020/10/03 05:16:01;;;;;;;4;2.65;;;;;;;16.7;60.99805;92538.2;;;;
2020/10/03 05:18:02;;;;;;;4;2.65;;;;;;;16.7;60.99805;92538.2;;;;
2020/10/03 05:20:14;;;;;;;4;2.65;;;;;;;16.7;60.99805;92538.2;;;;
2020/10/03 05:22:08;;;;;;;4;2.65;;;;;;;16.7;60.99805;92538.2;;;;
2020/10/03 05:24:15;;;;;;;4.2;2.9;;;;;;;16.53;61.08496;92526.14;;;;
2020/10/03 05:25:53;;;;;;;4.2;2.9;;;;;;;16.53;61.08496;92526.14;;;;
2020/10/03 05:27:34;;;;;;;4.2;2.9;;;;;;;16.53;61.08496;92526.14;;;;
2020/10/03 05:33:32;;;;;;;4.2;2.9;;;;;;;16.53;61.08496;92526.14;;;;
2020/10/03 05:39:10;;;;;;;3.25;2.5;;;;;;;16.47;61.2168;92515.26;;;;
2020/10/03 05:44:27;;;;;;;4.1;2.75;;;;;;;16.43;61.25391;92501.65;;;;
2020/10/03 05:50:15;;;;;;;4.1;2.75;;;;;;;16.43;61.25391;92501.65;;;;
2020/10/03 05:52:07;;;;;;;4.1;2.75;;;;;;;16.43;61.25391;92501.65;;;;
2020/10/03 05:57:44;;;;;;;3.25;2.7;;;;;;;16.58;61.06934;92505.11;;;;
2020/10/03 05:59:16;;;;;;;3.25;2.7;;;;;;;16.58;61.06934;92505.11;;;;
2020/10/03 06:01:39;;;;;;;3.25;2.7;;;;;;;16.58;61.06934;92505.11;;;;
2020/10/03 06:07:40;;;;;;;3.699999;2.55;;;;;;;16.6;60.97363;92494.67;;;;
2020/10/03 06:09:24;;;;;;;3.699999;2.55;;;;;;;16.6;60.97363;92494.67;;;;
2020/10/03 06:11:07;;;;;;;3.699999;2.55;;;;;;;16.6;60.97363;92494.67;;;;
2020/10/03 06:16:39;;;;;;;4.800001;2.7;;;;;;;16.65;61.26367;92518.55;;;;
2020/10/03 06:18:08;;;;;;;4.800001;2.7;;;;;;;16.65;61.26367;92518.55;;;;
2020/10/03 06:23:24;;;;;;;4.800001;2.7;;;;;;;16.65;61.26367;92518.55;;;;
2020/10/03 06:28:56;;;;;;;3.45;2.65;;;;;;;16.75;61.36426;92537.56;;;;
2020/10/03 06:30:33;;;;;;;3.45;2.65;;;;;;;16.75;61.36426;92537.56;;;;
2020/10/03 06:32:08;;;;;;;3.45;2.65;;;;;;;16.75;61.36426;92537.56;;;;
2020/10/03 06:33:37;;;;;;;3.45;2.65;;;;;;;16.75;61.36426;92537.56;;;;
2020/10/03 06:40:01;;;;;;;4;2.8;;;;;;;17.02;61.18359;92531.98;;;;
2020/10/03 06:41:04;;;;;;;4;2.8;;;;;;;17.02;61.18359;92531.98;;;;
2020/10/03 06:42:28;;;;;;;4;2.8;;;;;;;17.02;61.18359;92531.98;;;;
2020/10/03 06:48:01;;;;;;;4;2.8;;;;;;;17.02;61.18359;92531.98;;;;
2020/10/03 06:49:31;;;;;;;4.25;2.8;;;;;;;17.41;60.60449;92528.53;;;;
2020/10/03 06:50:57;;;;;;;4.25;2.8;;;;;;;17.41;60.60449;92528.53;;;;
2020/10/03 06:52:03;;;;;;;4.25;2.8;;;;;;;17.41;60.60449;92528.53;;;;
2020/10/03 06:53:08;;;;;;;4.25;2.8;;;;;;;17.41;60.60449;92528.53;;;;
2020/10/03 06:54:31;;;;;;;4.25;2.8;;;;;;;17.41;60.60449;92528.53;;;;
2020/10/03 06:55:47;;;;;;;4.25;2.8;;;;;;;17.41;60.60449;92528.53;;;;
2020/10/03 06:56:57;;;;;;;4.25;2.8;;;;;;;17.41;60.60449;92528.53;;;;
2020/10/03 06:58:14;;;;;;;4.25;2.8;;;;;;;17.41;60.60449;92528.53;;;;
2020/10/03 06:59:29;;;;;;;3.05;2.75;;;;;;;18.13;59.64258;92532.95;;;;
2020/10/03 07:01:17;;;;;;;3.05;2.75;;;;;;;18.13;59.64258;92532.95;;;;
2020/10/03 07:06:14;;;;;;;3.05;2.75;;;;;;;18.13;59.64258;92532.95;;;;
2020/10/03 07:07:15;;;;;;;3.05;2.75;;;;;;;18.13;59.64258;92532.95;;;;
2020/10/03 07:08:24;;;;;;;3.05;2.75;;;;;;;18.13;59.64258;92532.95;;;;
2020/10/03 07:09:41;;;;;;;3.05;2.75;;;;;;;18.13;59.64258;92532.95;;;;
2020/10/03 07:10:50;;;;;;;3;2.4;;;;;;;19.17;57.92969;92539.71;;;;
2020/10/03 07:11:53;;;;;;;3;2.4;;;;;;;19.17;57.92969;92539.71;;;;
2020/10/03 07:13:03;;;;;;;3;2.4;;;;;;;19.17;57.92969;92539.71;;;;
2020/10/03 07:14:33;;;;;;;3;2.4;;;;;;;19.17;57.92969;92539.71;;;;
2020/10/03 07:15:37;;;;;;;3;2.4;;;;;;;19.17;57.92969;92539.71;;;;
2020/10/03 07:16:45;;;;;;;3;2.4;;;;;;;19.17;57.92969;92539.71;;;;
2020/10/03 07:17:52;;;;;;;3;2.4;;;;;;;19.17;57.92969;92539.71;;;;
2020/10/03 07:18:54;;;;;;;3;2.4;;;;;;;19.17;57.92969;92539.71;;;;
2020/10/03 07:19:58;;;;;;;3;2.4;;;;;;;19.17;57.92969;92539.71;;;;
2020/10/03 07:21:01;;;;;;;2.5;2.3;;;;;;;20.71;55.66406;92542.58;;;;
2020/10/03 07:22:05;;;;;;;2.5;2.3;;;;;;;20.71;55.66406;92542.58;;;;
2020/10/03 07:23:13;;;;;;;2.5;2.3;;;;;;;20.71;55.66406;92542.58;;;;
2020/10/03 07:24:15;;;;;;;2.5;2.3;;;;;;;20.71;55.66406;92542.58;;;;
2020/10/03 07:25:17;;;;;;;2.5;2.3;;;;;;;20.71;55.66406;92542.58;;;;
2020/10/03 07:26:17;;;;;;;2.5;2.3;;;;;;;20.71;55.66406;92542.58;;;;
2020/10/03 07:27:20;;;;;;;2.5;2.3;;;;;;;20.71;55.66406;92542.58;;;;
2020/10/03 07:28:20;;;;;;;2.5;2.3;;;;;;;20.71;55.66406;92542.58;;;;
2020/10/03 07:29:23;;;;;;;2.5;2.3;;;;;;;20.71;55.66406;92542.58;;;;
2020/10/03 07:30:26;;;;;;;2.5;2.3;;;;;;;20.71;55.66406;92542.58;;;;
2020/10/03 07:31:28;;;;;;;3.7;2.55;;;;;;;22.18;53.99023;92538.56;;;;
2020/10/03 07:32:30;;;;;;;3.7;2.55;;;;;;;22.18;53.99023;92538.56;;;;
2020/10/03 07:33:38;;;;;;;3.7;2.55;;;;;;;22.18;53.99023;92538.56;;;;
2020/10/03 07:34:40;;;;;;;3.7;2.55;;;;;;;22.18;53.99023;92538.56;;;;
2020/10/03 07:35:51;;;;;;;3.7;2.55;;;;;;;22.18;53.99023;92538.56;;;;
2020/10/03 07:36:51;;;;;;;3.7;2.55;;;;;;;22.18;53.99023;92538.56;;;;
2020/10/03 07:37:52;;;;;;;3.7;2.55;;;;;;;22.18;53.99023;92538.56;;;;
2020/10/03 07:38:55;;;;;;;3.7;2.55;;;;;;;22.18;53.99023;92538.56;;;;
2020/10/03 07:39:59;;;;;;;3.7;2.55;;;;;;;22.18;53.99023;92538.56;;;;
2020/10/03 07:41:01;;;;;;;3.7;2.55;;;;;;;22.18;53.99023;92538.56;;;;
2020/10/03 07:42:11;;;;;;;2.6;2.2;;;;;;;24.26;51.16309;92522.47;;;;
2020/10/03 07:43:20;;;;;;;2.6;2.2;;;;;;;24.26;51.16309;92522.47;;;;
2020/10/03 07:44:23;;;;;;;2.6;2.2;;;;;;;24.26;51.16309;92522.47;;;;
2020/10/03 07:45:53;;;;;;;2.6;2.2;;;;;;;24.26;51.16309;92522.47;;;;
2020/10/03 07:47:00;;;;;;;2.6;2.2;;;;;;;24.26;51.16309;92522.47;;;;
2020/10/03 07:48:11;;;;;;;2.6;2.2;;;;;;;24.26;51.16309;92522.47;;;;
2020/10/03 07:49:33;;;;;;;2.6;2.2;;;;;;;24.26;51.16309;92522.47;;;;
2020/10/03 07:50:53;;;;;;;2.6;2.2;;;;;;;24.26;51.16309;92522.47;;;;
2020/10/03 07:52:06;;;;;;;2.6;2.2;;;;;;;24.26;51.16309;92522.47;;;;
2020/10/03 07:53:25;;;;;;;3.65;2.4;;;;;;;26.38;48.78125;92522.78;;;;
2020/10/03 07:54:31;;;;;;;3.65;2.4;;;;;;;26.38;48.78125;92522.78;;;;
2020/10/03 07:55:45;;;;;;;3.65;2.4;;;;;;;26.38;48.78125;92522.78;;;;
2020/10/03 07:56:52;;;;;;;3.65;2.4;;;;;;;26.38;48.78125;92522.78;;;;
2020/10/03 07:57:57;;;;;;;3.65;2.4;;;;;;;26.38;48.78125;92522.78;;;;
2020/10/03 07:58:57;;;;;;;3.65;2.4;;;;;;;26.38;48.78125;92522.78;;;;
2020/10/03 08:00:02;;;;;;;3.65;2.4;;;;;;;26.38;48.78125;92522.78;;;;
2020/10/03 08:01:04;;;;;;;3.65;2.4;;;;;;;26.38;48.78125;92522.78;;;;
2020/10/03 08:02:20;;;;;;;3.65;2.4;;;;;;;26.38;48.78125;92522.78;;;;
2020/10/03 08:03:20;;;;;;;2.5;2.299999;;;;;;;26.73;48.49414;92540.26;;;;
2020/10/03 08:04:21;;;;;;;2.5;2.299999;;;;;;;26.73;48.49414;92540.26;;;;
2020/10/03 08:05:25;;;;;;;2.5;2.299999;;;;;;;26.73;48.49414;92540.26;;;;
2020/10/03 08:06:27;;;;;;;2.5;2.299999;;;;;;;26.73;48.49414;92540.26;;;;
2020/10/03 08:07:44;;;;;;;2.5;2.299999;;;;;;;26.73;48.49414;92540.26;;;;
2020/10/03 08:08:44;;;;;;;2.5;2.299999;;;;;;;26.73;48.49414;92540.26;;;;
2020/10/03 08:09:59;;;;;;;2.5;2.299999;;;;;;;26.73;48.49414;92540.26;;;;
2020/10/03 08:11:00;;;;;;;2.5;2.299999;;;;;;;26.73;48.49414;92540.26;;;;
2020/10/03 08:12:12;;;;;;;2.5;2.299999;;;;;;;26.73;48.49414;92540.26;;;;
2020/10/03 08:13:12;;;;;;;2.5;2.299999;;;;;;;26.73;48.49414;92540.26;;;;
2020/10/03 08:14:13;;;;;;;3.5;2.4;;;;;;;26.36;48.97852;92525.16;;;;
2020/10/03 08:15:15;;;;;;;3.5;2.4;;;;;;;26.36;48.97852;92525.16;;;;
2020/10/03 08:16:15;;;;;;;3.5;2.4;;;;;;;26.36;48.97852;92525.16;;;;
2020/10/03 08:17:32;;;;;;;3.5;2.4;;;;;;;26.36;48.97852;92525.16;;;;
2020/10/03 08:18:32;;;;;;;3.5;2.4;;;;;;;26.36;48.97852;92525.16;;;;
2020/10/03 08:19:43;;;;;;;3.5;2.4;;;;;;;26.36;48.97852;92525.16;;;;
2020/10/03 08:20:43;;;;;;;3.5;2.4;;;;;;;26.36;48.97852;92525.16;;;;
2020/10/03 08:21:54;;;;;;;3.5;2.4;;;;;;;26.36;48.97852;92525.16;;;;
2020/10/03 08:22:55;;;;;;;3.5;2.4;;;;;;;26.36;48.97852;92525.16;;;;
2020/10/03 08:23:55;;;;;;;3.5;2.4;;;;;;;26.36;48.97852;92525.16;;;;
2020/10/03 08:24:56;;;;;;;2.8;2.1;;;;;;;25.03;49.80371;92525.08;;;;
2020/10/03 08:26:10;;;;;;;2.8;2.1;;;;;;;25.03;49.80371;92525.08;;;;
2020/10/03 08:27:12;;;;;;;2.8;2.1;;;;;;;25.03;49.80371;92525.08;;;;
2020/10/03 08:28:15;;;;;;;2.8;2.1;;;;;;;25.03;49.80371;92525.08;;;;
2020/10/03 08:29:15;;;;;;;2.8;2.1;;;;;;;25.03;49.80371;92525.08;;;;
2020/10/03 08:30:26;;;;;;;2.8;2.1;;;;;;;25.03;49.80371;92525.08;;;;
2020/10/03 08:31:26;;;;;;;2.8;2.1;;;;;;;25.03;49.80371;92525.08;;;;
2020/10/03 08:32:26;;;;;;;2.8;2.1;;;;;;;25.03;49.80371;92525.08;;;;
2020/10/03 08:33:27;;;;;;;2.8;2.1;;;;;;;25.03;49.80371;92525.08;;;;
2020/10/03 08:34:28;;;;;;;2.8;2.1;;;;;;;25.03;49.80371;92525.08;;;;